sensor_id;sensor_type;location;lat;lon;timestamp;P1;durP1;ratioP1;P2;durP2;ratioP2
16660;SDS011;8444;52.012;5.048;2022-09-12T00:01:05;27.10;;;19.13;;
16660;SDS011;8444;52.012;5.048;2022-09-12T00:03:31;26.95;;;19.60;;
16660;SDS011;8444;52.012;5.048;2022-09-12T00:05:56;29.58;;;20.35;;
16660;SDS011;8444;52.012;5.048;2022-09-12T00:08:21;28.50;;;20.80;;
16660;SDS011;8444;52.012;5.048;2022-09-12T00:10:46;28.30;;;18.07;;
16660;SDS011;8444;52.012;5.048;2022-09-12T00:13:12;22.45;;;17.90;;
16660;SDS011;8444;52.012;5.048;2022-09-12T00:15:38;23.23;;;18.35;;
16660;SDS011;8444;52.012;5.048;2022-09-12T00:18:03;20.27;;;16.08;;
16660;SDS011;8444;52.012;5.048;2022-09-12T00:20:28;23.00;;;17.67;;
16660;SDS011;8444;52.012;5.048;2022-09-12T00:22:53;25.50;;;17.92;;
16660;SDS011;8444;52.012;5.048;2022-09-12T00:25:19;23.30;;;17.05;;
16660;SDS011;8444;52.012;5.048;2022-09-12T00:27:44;27.13;;;20.15;;
16660;SDS011;8444;52.012;5.048;2022-09-12T00:30:09;27.88;;;19.67;;
16660;SDS011;8444;52.012;5.048;2022-09-12T00:32:34;27.73;;;20.02;;
16660;SDS011;8444;52.012;5.048;2022-09-12T00:35:00;32.20;;;22.40;;
16660;SDS011;8444;52.012;5.048;2022-09-12T00:37:27;30.85;;;21.25;;
16660;SDS011;8444;52.012;5.048;2022-09-12T00:39:52;29.73;;;20.30;;
16660;SDS011;8444;52.012;5.048;2022-09-12T00:42:17;29.95;;;21.35;;
16660;SDS011;8444;52.012;5.048;2022-09-12T00:44:43;26.83;;;19.58;;
16660;SDS011;8444;52.012;5.048;2022-09-12T00:47:42;24.08;;;18.45;;
16660;SDS011;8444;52.012;5.048;2022-09-12T00:50:06;27.77;;;19.88;;
16660;SDS011;8444;52.012;5.048;2022-09-12T00:52:37;27.92;;;19.00;;
16660;SDS011;8444;52.012;5.048;2022-09-12T00:55:05;31.77;;;22.92;;
16660;SDS011;8444;52.012;5.048;2022-09-12T00:57:33;32.95;;;21.17;;
16660;SDS011;8444;52.012;5.048;2022-09-12T01:00:09;25.15;;;18.60;;
16660;SDS011;8444;52.012;5.048;2022-09-12T01:02:45;33.42;;;21.15;;
16660;SDS011;8444;52.012;5.048;2022-09-12T01:05:13;27.83;;;20.20;;
16660;SDS011;8444;52.012;5.048;2022-09-12T01:07:38;30.83;;;20.98;;
16660;SDS011;8444;52.012;5.048;2022-09-12T01:10:04;31.58;;;21.77;;
16660;SDS011;8444;52.012;5.048;2022-09-12T01:12:30;35.40;;;22.65;;
16660;SDS011;8444;52.012;5.048;2022-09-12T01:14:55;32.60;;;22.02;;
16660;SDS011;8444;52.012;5.048;2022-09-12T01:17:20;27.15;;;19.90;;
16660;SDS011;8444;52.012;5.048;2022-09-12T01:23:09;27.20;;;19.40;;
16660;SDS011;8444;52.012;5.048;2022-09-12T01:28:18;33.22;;;20.83;;
16660;SDS011;8444;52.012;5.048;2022-09-12T01:30:54;34.67;;;21.35;;
16660;SDS011;8444;52.012;5.048;2022-09-12T01:33:31;31.63;;;19.80;;
16660;SDS011;8444;52.012;5.048;2022-09-12T01:38:36;32.25;;;20.88;;
16660;SDS011;8444;52.012;5.048;2022-09-12T01:41:10;35.78;;;21.75;;
16660;SDS011;8444;52.012;5.048;2022-09-12T01:46:09;31.63;;;22.33;;
16660;SDS011;8444;52.012;5.048;2022-09-12T01:48:37;31.50;;;21.20;;
16660;SDS011;8444;52.012;5.048;2022-09-12T01:51:12;31.05;;;21.27;;
16660;SDS011;8444;52.012;5.048;2022-09-12T01:53:41;33.15;;;22.55;;
16660;SDS011;8444;52.012;5.048;2022-09-12T01:56:09;32.78;;;21.45;;
16660;SDS011;8444;52.012;5.048;2022-09-12T01:58:40;31.75;;;20.38;;
16660;SDS011;8444;52.012;5.048;2022-09-12T02:03:36;32.08;;;20.17;;
16660;SDS011;8444;52.012;5.048;2022-09-12T02:06:05;27.20;;;19.02;;
16660;SDS011;8444;52.012;5.048;2022-09-12T02:08:32;33.72;;;21.92;;
16660;SDS011;8444;52.012;5.048;2022-09-12T02:11:00;34.15;;;20.38;;
16660;SDS011;8444;52.012;5.048;2022-09-12T02:15:53;33.42;;;21.85;;
16660;SDS011;8444;52.012;5.048;2022-09-12T02:18:20;32.83;;;22.05;;
16660;SDS011;8444;52.012;5.048;2022-09-12T02:20:46;31.92;;;22.35;;
16660;SDS011;8444;52.012;5.048;2022-09-12T02:23:13;34.08;;;20.83;;
16660;SDS011;8444;52.012;5.048;2022-09-12T02:25:41;38.33;;;22.88;;
16660;SDS011;8444;52.012;5.048;2022-09-12T02:28:13;30.95;;;20.73;;
16660;SDS011;8444;52.012;5.048;2022-09-12T02:30:41;30.70;;;21.35;;
16660;SDS011;8444;52.012;5.048;2022-09-12T02:33:16;30.50;;;20.55;;
16660;SDS011;8444;52.012;5.048;2022-09-12T02:35:48;31.52;;;21.55;;
16660;SDS011;8444;52.012;5.048;2022-09-12T02:40:43;37.22;;;23.63;;
16660;SDS011;8444;52.012;5.048;2022-09-12T02:43:08;36.20;;;22.85;;
16660;SDS011;8444;52.012;5.048;2022-09-12T02:45:33;35.70;;;23.40;;
16660;SDS011;8444;52.012;5.048;2022-09-12T02:50:24;35.92;;;22.05;;
16660;SDS011;8444;52.012;5.048;2022-09-12T02:52:50;38.38;;;23.17;;
16660;SDS011;8444;52.012;5.048;2022-09-12T02:55:17;35.33;;;24.13;;
16660;SDS011;8444;52.012;5.048;2022-09-12T02:57:42;44.85;;;25.13;;
16660;SDS011;8444;52.012;5.048;2022-09-12T03:00:08;36.85;;;24.15;;
16660;SDS011;8444;52.012;5.048;2022-09-12T03:05:19;35.20;;;22.88;;
16660;SDS011;8444;52.012;5.048;2022-09-12T03:07:53;39.50;;;25.10;;
16660;SDS011;8444;52.012;5.048;2022-09-12T03:15:36;42.00;;;25.42;;
16660;SDS011;8444;52.012;5.048;2022-09-12T03:20:46;45.78;;;26.58;;
16660;SDS011;8444;52.012;5.048;2022-09-12T03:26:09;46.67;;;26.92;;
16660;SDS011;8444;52.012;5.048;2022-09-12T03:28:36;45.47;;;26.48;;
16660;SDS011;8444;52.012;5.048;2022-09-12T03:31:10;39.15;;;24.58;;
16660;SDS011;8444;52.012;5.048;2022-09-12T03:33:35;43.78;;;24.42;;
16660;SDS011;8444;52.012;5.048;2022-09-12T03:36:00;40.20;;;24.73;;
16660;SDS011;8444;52.012;5.048;2022-09-12T03:38:26;43.63;;;26.60;;
16660;SDS011;8444;52.012;5.048;2022-09-12T03:40:51;43.60;;;25.25;;
16660;SDS011;8444;52.012;5.048;2022-09-12T03:43:16;42.38;;;25.38;;
16660;SDS011;8444;52.012;5.048;2022-09-12T03:45:41;38.63;;;23.60;;
16660;SDS011;8444;52.012;5.048;2022-09-12T03:48:06;45.65;;;27.95;;
16660;SDS011;8444;52.012;5.048;2022-09-12T03:50:32;40.55;;;26.30;;
16660;SDS011;8444;52.012;5.048;2022-09-12T03:52:57;46.17;;;28.27;;
16660;SDS011;8444;52.012;5.048;2022-09-12T03:55:23;48.63;;;26.48;;
16660;SDS011;8444;52.012;5.048;2022-09-12T03:57:51;45.75;;;27.80;;
16660;SDS011;8444;52.012;5.048;2022-09-12T04:00:16;43.13;;;26.08;;
16660;SDS011;8444;52.012;5.048;2022-09-12T04:02:41;44.35;;;27.15;;
16660;SDS011;8444;52.012;5.048;2022-09-12T04:05:07;42.65;;;26.33;;
16660;SDS011;8444;52.012;5.048;2022-09-12T04:07:32;44.28;;;26.42;;
16660;SDS011;8444;52.012;5.048;2022-09-12T04:09:57;43.33;;;24.83;;
16660;SDS011;8444;52.012;5.048;2022-09-12T04:12:22;40.90;;;24.90;;
16660;SDS011;8444;52.012;5.048;2022-09-12T04:14:48;43.13;;;24.85;;
16660;SDS011;8444;52.012;5.048;2022-09-12T04:17:14;36.35;;;23.70;;
16660;SDS011;8444;52.012;5.048;2022-09-12T04:19:40;36.53;;;20.70;;
16660;SDS011;8444;52.012;5.048;2022-09-12T04:22:05;35.78;;;21.83;;
16660;SDS011;8444;52.012;5.048;2022-09-12T04:24:30;35.15;;;22.48;;
16660;SDS011;8444;52.012;5.048;2022-09-12T04:26:55;46.35;;;25.77;;
16660;SDS011;8444;52.012;5.048;2022-09-12T04:29:21;41.85;;;26.35;;
16660;SDS011;8444;52.012;5.048;2022-09-12T04:31:46;44.58;;;25.30;;
16660;SDS011;8444;52.012;5.048;2022-09-12T04:34:11;40.60;;;24.60;;
16660;SDS011;8444;52.012;5.048;2022-09-12T04:36:36;37.20;;;22.55;;
16660;SDS011;8444;52.012;5.048;2022-09-12T04:39:02;38.90;;;24.48;;
16660;SDS011;8444;52.012;5.048;2022-09-12T04:41:29;40.78;;;23.92;;
16660;SDS011;8444;52.012;5.048;2022-09-12T04:43:59;41.60;;;24.08;;
16660;SDS011;8444;52.012;5.048;2022-09-12T04:46:27;38.65;;;23.92;;
16660;SDS011;8444;52.012;5.048;2022-09-12T04:48:53;46.80;;;25.80;;
16660;SDS011;8444;52.012;5.048;2022-09-12T04:51:22;35.40;;;22.73;;
16660;SDS011;8444;52.012;5.048;2022-09-12T04:53:50;36.95;;;22.95;;
16660;SDS011;8444;52.012;5.048;2022-09-12T04:56:16;35.42;;;22.48;;
16660;SDS011;8444;52.012;5.048;2022-09-12T04:58:41;37.40;;;21.73;;
16660;SDS011;8444;52.012;5.048;2022-09-12T05:01:07;37.28;;;22.15;;
16660;SDS011;8444;52.012;5.048;2022-09-12T05:03:33;37.65;;;23.10;;
16660;SDS011;8444;52.012;5.048;2022-09-12T05:06:01;36.00;;;22.58;;
16660;SDS011;8444;52.012;5.048;2022-09-12T05:08:26;34.55;;;22.52;;
16660;SDS011;8444;52.012;5.048;2022-09-12T05:10:51;33.40;;;22.03;;
16660;SDS011;8444;52.012;5.048;2022-09-12T05:13:16;33.50;;;22.20;;
16660;SDS011;8444;52.012;5.048;2022-09-12T05:15:42;32.22;;;21.73;;
16660;SDS011;8444;52.012;5.048;2022-09-12T05:18:07;32.63;;;21.23;;
16660;SDS011;8444;52.012;5.048;2022-09-12T05:20:32;40.35;;;23.02;;
16660;SDS011;8444;52.012;5.048;2022-09-12T05:22:57;31.95;;;21.23;;
16660;SDS011;8444;52.012;5.048;2022-09-12T05:25:23;33.38;;;22.45;;
16660;SDS011;8444;52.012;5.048;2022-09-12T05:27:50;32.83;;;20.95;;
16660;SDS011;8444;52.012;5.048;2022-09-12T05:30:16;33.88;;;22.13;;
16660;SDS011;8444;52.012;5.048;2022-09-12T05:32:41;35.05;;;22.58;;
16660;SDS011;8444;52.012;5.048;2022-09-12T05:35:06;31.35;;;21.08;;
16660;SDS011;8444;52.012;5.048;2022-09-12T05:37:31;34.85;;;20.67;;
16660;SDS011;8444;52.012;5.048;2022-09-12T05:39:56;34.15;;;22.60;;
16660;SDS011;8444;52.012;5.048;2022-09-12T05:42:22;35.38;;;23.50;;
16660;SDS011;8444;52.012;5.048;2022-09-12T05:44:47;35.00;;;22.67;;
16660;SDS011;8444;52.012;5.048;2022-09-12T05:47:13;35.75;;;23.40;;
16660;SDS011;8444;52.012;5.048;2022-09-12T05:49:38;34.75;;;23.02;;
16660;SDS011;8444;52.012;5.048;2022-09-12T05:52:03;32.85;;;21.08;;
16660;SDS011;8444;52.012;5.048;2022-09-12T05:54:28;37.85;;;24.25;;
16660;SDS011;8444;52.012;5.048;2022-09-12T05:56:53;35.77;;;22.40;;
16660;SDS011;8444;52.012;5.048;2022-09-12T05:59:19;32.90;;;21.83;;
16660;SDS011;8444;52.012;5.048;2022-09-12T06:01:44;39.78;;;24.23;;
16660;SDS011;8444;52.012;5.048;2022-09-12T06:04:10;37.38;;;25.70;;
16660;SDS011;8444;52.012;5.048;2022-09-12T06:06:37;36.10;;;22.70;;
16660;SDS011;8444;52.012;5.048;2022-09-12T06:09:03;41.42;;;23.80;;
16660;SDS011;8444;52.012;5.048;2022-09-12T06:11:29;38.45;;;23.55;;
16660;SDS011;8444;52.012;5.048;2022-09-12T06:13:55;36.55;;;24.58;;
16660;SDS011;8444;52.012;5.048;2022-09-12T06:16:22;40.70;;;24.73;;
16660;SDS011;8444;52.012;5.048;2022-09-12T06:18:49;42.80;;;25.85;;
16660;SDS011;8444;52.012;5.048;2022-09-12T06:21:15;39.83;;;25.95;;
16660;SDS011;8444;52.012;5.048;2022-09-12T06:23:40;43.78;;;24.88;;
16660;SDS011;8444;52.012;5.048;2022-09-12T06:26:06;35.97;;;24.02;;
16660;SDS011;8444;52.012;5.048;2022-09-12T06:28:33;41.80;;;26.25;;
16660;SDS011;8444;52.012;5.048;2022-09-12T06:31:02;39.67;;;26.67;;
16660;SDS011;8444;52.012;5.048;2022-09-12T06:33:28;33.30;;;23.35;;
16660;SDS011;8444;52.012;5.048;2022-09-12T06:35:54;39.60;;;25.60;;
16660;SDS011;8444;52.012;5.048;2022-09-12T06:38:19;38.63;;;24.50;;
16660;SDS011;8444;52.012;5.048;2022-09-12T06:40:44;34.25;;;24.27;;
16660;SDS011;8444;52.012;5.048;2022-09-12T06:43:10;36.10;;;22.98;;
16660;SDS011;8444;52.012;5.048;2022-09-12T06:45:36;30.25;;;22.42;;
16660;SDS011;8444;52.012;5.048;2022-09-12T06:48:01;32.70;;;22.83;;
16660;SDS011;8444;52.012;5.048;2022-09-12T06:50:26;33.80;;;23.55;;
16660;SDS011;8444;52.012;5.048;2022-09-12T06:52:52;29.75;;;21.50;;
16660;SDS011;8444;52.012;5.048;2022-09-12T06:55:17;29.40;;;21.73;;
16660;SDS011;8444;52.012;5.048;2022-09-12T06:57:42;28.65;;;21.05;;
16660;SDS011;8444;52.012;5.048;2022-09-12T07:00:08;27.45;;;20.27;;
16660;SDS011;8444;52.012;5.048;2022-09-12T07:02:34;28.40;;;20.40;;
16660;SDS011;8444;52.012;5.048;2022-09-12T07:04:59;26.93;;;20.13;;
16660;SDS011;8444;52.012;5.048;2022-09-12T07:07:24;28.05;;;20.85;;
16660;SDS011;8444;52.012;5.048;2022-09-12T07:09:50;27.95;;;20.67;;
16660;SDS011;8444;52.012;5.048;2022-09-12T07:12:15;25.50;;;20.47;;
16660;SDS011;8444;52.012;5.048;2022-09-12T07:14:40;25.38;;;19.00;;
16660;SDS011;8444;52.012;5.048;2022-09-12T07:17:05;24.70;;;20.42;;
16660;SDS011;8444;52.012;5.048;2022-09-12T07:19:31;26.15;;;19.15;;
16660;SDS011;8444;52.012;5.048;2022-09-12T07:21:57;27.48;;;19.92;;
16660;SDS011;8444;52.012;5.048;2022-09-12T07:24:22;24.33;;;19.40;;
16660;SDS011;8444;52.012;5.048;2022-09-12T07:26:47;23.83;;;18.77;;
16660;SDS011;8444;52.012;5.048;2022-09-12T07:29:13;25.02;;;18.95;;
16660;SDS011;8444;52.012;5.048;2022-09-12T07:31:40;24.88;;;18.52;;
16660;SDS011;8444;52.012;5.048;2022-09-12T07:34:05;22.05;;;19.13;;
16660;SDS011;8444;52.012;5.048;2022-09-12T07:36:30;21.35;;;17.73;;
16660;SDS011;8444;52.012;5.048;2022-09-12T07:38:56;21.88;;;17.45;;
16660;SDS011;8444;52.012;5.048;2022-09-12T07:41:26;24.95;;;18.35;;
16660;SDS011;8444;52.012;5.048;2022-09-12T07:43:52;20.05;;;15.70;;
16660;SDS011;8444;52.012;5.048;2022-09-12T07:46:18;21.30;;;17.55;;
16660;SDS011;8444;52.012;5.048;2022-09-12T07:48:43;19.30;;;17.13;;
16660;SDS011;8444;52.012;5.048;2022-09-12T07:51:09;23.70;;;17.08;;
16660;SDS011;8444;52.012;5.048;2022-09-12T07:53:38;25.45;;;17.98;;
16660;SDS011;8444;52.012;5.048;2022-09-12T07:56:04;21.25;;;15.98;;
16660;SDS011;8444;52.012;5.048;2022-09-12T07:58:31;20.33;;;16.85;;
16660;SDS011;8444;52.012;5.048;2022-09-12T08:01:06;18.50;;;16.27;;
16660;SDS011;8444;52.012;5.048;2022-09-12T08:03:32;22.35;;;16.23;;
16660;SDS011;8444;52.012;5.048;2022-09-12T08:06:02;17.35;;;15.38;;
16660;SDS011;8444;52.012;5.048;2022-09-12T08:08:27;19.38;;;16.60;;
16660;SDS011;8444;52.012;5.048;2022-09-12T08:10:55;18.77;;;16.20;;
16660;SDS011;8444;52.012;5.048;2022-09-12T08:13:21;20.13;;;16.65;;
16660;SDS011;8444;52.012;5.048;2022-09-12T08:15:46;17.35;;;15.45;;
16660;SDS011;8444;52.012;5.048;2022-09-12T08:18:11;18.63;;;14.73;;
16660;SDS011;8444;52.012;5.048;2022-09-12T08:20:36;18.67;;;16.48;;
16660;SDS011;8444;52.012;5.048;2022-09-12T08:23:01;19.42;;;15.90;;
16660;SDS011;8444;52.012;5.048;2022-09-12T08:25:27;19.20;;;14.15;;
16660;SDS011;8444;52.012;5.048;2022-09-12T08:27:52;15.70;;;13.75;;
16660;SDS011;8444;52.012;5.048;2022-09-12T08:30:18;16.35;;;14.52;;
16660;SDS011;8444;52.012;5.048;2022-09-12T08:32:43;16.92;;;14.65;;
16660;SDS011;8444;52.012;5.048;2022-09-12T08:35:08;16.90;;;14.40;;
16660;SDS011;8444;52.012;5.048;2022-09-12T08:37:33;17.20;;;14.03;;
16660;SDS011;8444;52.012;5.048;2022-09-12T08:39:59;14.13;;;12.07;;
16660;SDS011;8444;52.012;5.048;2022-09-12T08:42:45;14.90;;;13.10;;
16660;SDS011;8444;52.012;5.048;2022-09-12T08:45:16;14.25;;;12.63;;
16660;SDS011;8444;52.012;5.048;2022-09-12T08:47:42;14.65;;;11.93;;
16660;SDS011;8444;52.012;5.048;2022-09-12T08:57:46;12.48;;;11.23;;
16660;SDS011;8444;52.012;5.048;2022-09-12T09:00:12;12.80;;;11.05;;
16660;SDS011;8444;52.012;5.048;2022-09-12T09:02:47;14.95;;;12.45;;
16660;SDS011;8444;52.012;5.048;2022-09-12T09:10:22;15.32;;;13.27;;
16660;SDS011;8444;52.012;5.048;2022-09-12T09:18:07;14.65;;;12.63;;
16660;SDS011;8444;52.012;5.048;2022-09-12T09:20:48;15.23;;;12.40;;
16660;SDS011;8444;52.012;5.048;2022-09-12T09:30:50;12.98;;;11.45;;
16660;SDS011;8444;52.012;5.048;2022-09-12T09:33:20;12.05;;;10.80;;
16660;SDS011;8444;52.012;5.048;2022-09-12T09:35:47;13.10;;;11.73;;
16660;SDS011;8444;52.012;5.048;2022-09-12T09:38:23;15.65;;;11.63;;
16660;SDS011;8444;52.012;5.048;2022-09-12T09:40:53;12.15;;;10.35;;
16660;SDS011;8444;52.012;5.048;2022-09-12T09:43:22;13.98;;;10.80;;
16660;SDS011;8444;52.012;5.048;2022-09-12T09:45:48;12.20;;;10.85;;
16660;SDS011;8444;52.012;5.048;2022-09-12T09:48:24;12.80;;;10.20;;
16660;SDS011;8444;52.012;5.048;2022-09-12T09:50:50;11.57;;;10.05;;
16660;SDS011;8444;52.012;5.048;2022-09-12T09:53:21;12.02;;;10.50;;
16660;SDS011;8444;52.012;5.048;2022-09-12T09:55:49;12.32;;;9.88;;
16660;SDS011;8444;52.012;5.048;2022-09-12T09:58:33;9.27;;;7.97;;
16660;SDS011;8444;52.012;5.048;2022-09-12T10:01:00;8.82;;;7.93;;
16660;SDS011;8444;52.012;5.048;2022-09-12T10:03:27;8.32;;;7.18;;
16660;SDS011;8444;52.012;5.048;2022-09-12T10:05:55;10.50;;;7.90;;
16660;SDS011;8444;52.012;5.048;2022-09-12T10:08:33;8.48;;;7.15;;
16660;SDS011;8444;52.012;5.048;2022-09-12T10:14:01;9.38;;;7.47;;
16660;SDS011;8444;52.012;5.048;2022-09-12T10:18:49;8.07;;;6.70;;
16660;SDS011;8444;52.012;5.048;2022-09-12T10:21:38;9.65;;;7.45;;
16660;SDS011;8444;52.012;5.048;2022-09-12T10:26:45;7.30;;;6.00;;
16660;SDS011;8444;52.012;5.048;2022-09-12T10:29:14;8.32;;;6.47;;
16660;SDS011;8444;52.012;5.048;2022-09-12T10:31:42;8.25;;;6.70;;
16660;SDS011;8444;52.012;5.048;2022-09-12T10:34:14;7.80;;;6.43;;
16660;SDS011;8444;52.012;5.048;2022-09-12T10:36:43;9.30;;;6.00;;
16660;SDS011;8444;52.012;5.048;2022-09-12T10:39:11;8.07;;;6.00;;
16660;SDS011;8444;52.012;5.048;2022-09-12T10:41:38;6.95;;;6.25;;
16660;SDS011;8444;52.012;5.048;2022-09-12T10:44:06;6.97;;;6.32;;
16660;SDS011;8444;52.012;5.048;2022-09-12T10:46:31;9.27;;;6.55;;
16660;SDS011;8444;52.012;5.048;2022-09-12T10:49:16;7.68;;;6.10;;
16660;SDS011;8444;52.012;5.048;2022-09-12T10:51:43;7.35;;;6.65;;
16660;SDS011;8444;52.012;5.048;2022-09-12T10:54:09;8.43;;;6.53;;
16660;SDS011;8444;52.012;5.048;2022-09-12T10:56:37;5.60;;;5.10;;
16660;SDS011;8444;52.012;5.048;2022-09-12T11:06:55;7.43;;;5.00;;
16660;SDS011;8444;52.012;5.048;2022-09-12T11:17:19;6.32;;;5.72;;
16660;SDS011;8444;52.012;5.048;2022-09-12T11:19:52;5.78;;;5.18;;
16660;SDS011;8444;52.012;5.048;2022-09-12T11:22:28;6.10;;;5.15;;
16660;SDS011;8444;52.012;5.048;2022-09-12T11:25:06;6.38;;;5.72;;
16660;SDS011;8444;52.012;5.048;2022-09-12T11:30:07;4.87;;;4.37;;
16660;SDS011;8444;52.012;5.048;2022-09-12T11:35:18;5.72;;;3.58;;
16660;SDS011;8444;52.012;5.048;2022-09-12T11:40:31;3.80;;;2.97;;
16660;SDS011;8444;52.012;5.048;2022-09-12T11:43:02;4.50;;;3.70;;
16660;SDS011;8444;52.012;5.048;2022-09-12T11:45:31;3.20;;;3.00;;
16660;SDS011;8444;52.012;5.048;2022-09-12T11:48:00;2.88;;;2.63;;
16660;SDS011;8444;52.012;5.048;2022-09-12T11:50:29;3.83;;;3.25;;
16660;SDS011;8444;52.012;5.048;2022-09-12T11:52:56;4.68;;;3.42;;
16660;SDS011;8444;52.012;5.048;2022-09-12T11:55:24;4.20;;;3.30;;
16660;SDS011;8444;52.012;5.048;2022-09-12T11:57:53;4.22;;;3.60;;
16660;SDS011;8444;52.012;5.048;2022-09-12T12:00:20;4.18;;;3.03;;
16660;SDS011;8444;52.012;5.048;2022-09-12T12:02:53;3.53;;;2.97;;
16660;SDS011;8444;52.012;5.048;2022-09-12T12:07:50;3.20;;;2.90;;
16660;SDS011;8444;52.012;5.048;2022-09-12T12:12:54;5.20;;;3.15;;
16660;SDS011;8444;52.012;5.048;2022-09-12T12:15:20;4.55;;;3.88;;
16660;SDS011;8444;52.012;5.048;2022-09-12T12:17:58;3.58;;;3.28;;
16660;SDS011;8444;52.012;5.048;2022-09-12T12:20:23;2.90;;;2.60;;
16660;SDS011;8444;52.012;5.048;2022-09-12T12:22:52;3.70;;;3.40;;
16660;SDS011;8444;52.012;5.048;2022-09-12T12:32:51;4.72;;;3.65;;
16660;SDS011;8444;52.012;5.048;2022-09-12T12:38:00;4.65;;;3.58;;
16660;SDS011;8444;52.012;5.048;2022-09-12T12:40:27;5.15;;;3.88;;
16660;SDS011;8444;52.012;5.048;2022-09-12T12:48:06;3.80;;;3.40;;
16660;SDS011;8444;52.012;5.048;2022-09-12T12:50:32;4.20;;;3.80;;
16660;SDS011;8444;52.012;5.048;2022-09-12T12:58:17;3.97;;;3.53;;
16660;SDS011;8444;52.012;5.048;2022-09-12T13:01:03;4.85;;;3.35;;
16660;SDS011;8444;52.012;5.048;2022-09-12T13:03:30;3.63;;;3.08;;
16660;SDS011;8444;52.012;5.048;2022-09-12T13:05:59;5.03;;;3.03;;
16660;SDS011;8444;52.012;5.048;2022-09-12T13:08:34;3.58;;;3.25;;
16660;SDS011;8444;52.012;5.048;2022-09-12T13:13:48;4.45;;;3.90;;
16660;SDS011;8444;52.012;5.048;2022-09-12T13:16:30;5.22;;;3.95;;
16660;SDS011;8444;52.012;5.048;2022-09-12T13:18:55;4.93;;;3.15;;
16660;SDS011;8444;52.012;5.048;2022-09-12T13:21:21;3.28;;;2.97;;
16660;SDS011;8444;52.012;5.048;2022-09-12T13:26:26;4.40;;;3.10;;
16660;SDS011;8444;52.012;5.048;2022-09-12T13:31:36;2.75;;;2.45;;
16660;SDS011;8444;52.012;5.048;2022-09-12T13:34:03;3.67;;;2.60;;
16660;SDS011;8444;52.012;5.048;2022-09-12T13:39:14;3.80;;;2.80;;
16660;SDS011;8444;52.012;5.048;2022-09-12T13:44:20;2.90;;;2.60;;
16660;SDS011;8444;52.012;5.048;2022-09-12T13:46:47;3.42;;;2.45;;
16660;SDS011;8444;52.012;5.048;2022-09-12T13:49:32;2.92;;;2.63;;
16660;SDS011;8444;52.012;5.048;2022-09-12T13:52:06;3.13;;;2.83;;
16660;SDS011;8444;52.012;5.048;2022-09-12T13:54:32;4.93;;;3.03;;
16660;SDS011;8444;52.012;5.048;2022-09-12T13:56:58;3.92;;;2.60;;
16660;SDS011;8444;52.012;5.048;2022-09-12T13:59:23;4.85;;;2.95;;
16660;SDS011;8444;52.012;5.048;2022-09-12T14:01:49;2.95;;;2.65;;
16660;SDS011;8444;52.012;5.048;2022-09-12T14:04:18;3.00;;;2.63;;
16660;SDS011;8444;52.012;5.048;2022-09-12T14:07:08;6.60;;;2.65;;
16660;SDS011;8444;52.012;5.048;2022-09-12T14:09:39;6.35;;;2.70;;
16660;SDS011;8444;52.012;5.048;2022-09-12T14:12:16;3.40;;;2.60;;
16660;SDS011;8444;52.012;5.048;2022-09-12T14:14:46;2.20;;;2.00;;
16660;SDS011;8444;52.012;5.048;2022-09-12T14:17:16;3.67;;;2.22;;
16660;SDS011;8444;52.012;5.048;2022-09-12T14:19:42;2.78;;;2.30;;
16660;SDS011;8444;52.012;5.048;2022-09-12T14:22:08;6.90;;;2.75;;
16660;SDS011;8444;52.012;5.048;2022-09-12T14:24:35;3.67;;;2.88;;
16660;SDS011;8444;52.012;5.048;2022-09-12T14:27:01;3.78;;;2.70;;
16660;SDS011;8444;52.012;5.048;2022-09-12T14:29:26;8.63;;;2.72;;
16660;SDS011;8444;52.012;5.048;2022-09-12T14:31:59;2.70;;;2.35;;
16660;SDS011;8444;52.012;5.048;2022-09-12T14:34:24;2.80;;;2.28;;
16660;SDS011;8444;52.012;5.048;2022-09-12T14:36:50;2.58;;;2.38;;
16660;SDS011;8444;52.012;5.048;2022-09-12T14:39:21;4.10;;;2.63;;
16660;SDS011;8444;52.012;5.048;2022-09-12T14:41:47;3.10;;;2.60;;
16660;SDS011;8444;52.012;5.048;2022-09-12T14:44:18;2.40;;;2.20;;
16660;SDS011;8444;52.012;5.048;2022-09-12T14:46:44;2.50;;;2.30;;
16660;SDS011;8444;52.012;5.048;2022-09-12T14:51:37;2.57;;;2.37;;
16660;SDS011;8444;52.012;5.048;2022-09-12T14:54:04;3.85;;;2.10;;
16660;SDS011;8444;52.012;5.048;2022-09-12T14:56:42;4.75;;;3.55;;
16660;SDS011;8444;52.012;5.048;2022-09-12T15:04:45;2.67;;;2.20;;
16660;SDS011;8444;52.012;5.048;2022-09-12T15:07:19;2.67;;;2.42;;
16660;SDS011;8444;52.012;5.048;2022-09-12T15:09:46;4.63;;;1.90;;
16660;SDS011;8444;52.012;5.048;2022-09-12T15:12:11;4.30;;;2.00;;
16660;SDS011;8444;52.012;5.048;2022-09-12T15:14:36;3.63;;;2.50;;
16660;SDS011;8444;52.012;5.048;2022-09-12T15:17:02;3.10;;;2.60;;
16660;SDS011;8444;52.012;5.048;2022-09-12T15:19:27;2.77;;;2.57;;
16660;SDS011;8444;52.012;5.048;2022-09-12T15:21:52;2.95;;;2.30;;
16660;SDS011;8444;52.012;5.048;2022-09-12T15:24:18;4.13;;;2.60;;
16660;SDS011;8444;52.012;5.048;2022-09-12T15:26:43;2.73;;;2.53;;
16660;SDS011;8444;52.012;5.048;2022-09-12T15:29:08;4.27;;;2.10;;
16660;SDS011;8444;52.012;5.048;2022-09-12T15:31:33;2.50;;;2.30;;
16660;SDS011;8444;52.012;5.048;2022-09-12T15:34:00;2.20;;;2.00;;
16660;SDS011;8444;52.012;5.048;2022-09-12T15:36:25;2.20;;;1.88;;
16660;SDS011;8444;52.012;5.048;2022-09-12T15:38:52;2.38;;;1.60;;
16660;SDS011;8444;52.012;5.048;2022-09-12T15:41:18;2.45;;;2.10;;
16660;SDS011;8444;52.012;5.048;2022-09-12T15:43:44;1.90;;;1.80;;
16660;SDS011;8444;52.012;5.048;2022-09-12T15:46:10;2.22;;;2.00;;
16660;SDS011;8444;52.012;5.048;2022-09-12T15:48:37;2.03;;;1.73;;
16660;SDS011;8444;52.012;5.048;2022-09-12T15:51:02;2.28;;;1.85;;
16660;SDS011;8444;52.012;5.048;2022-09-12T15:53:29;2.53;;;1.88;;
16660;SDS011;8444;52.012;5.048;2022-09-12T15:55:54;1.95;;;1.65;;
16660;SDS011;8444;52.012;5.048;2022-09-12T15:58:20;2.90;;;1.73;;
16660;SDS011;8444;52.012;5.048;2022-09-12T16:00:45;4.60;;;1.70;;
16660;SDS011;8444;52.012;5.048;2022-09-12T16:03:18;1.70;;;1.60;;
16660;SDS011;8444;52.012;5.048;2022-09-12T16:05:44;2.08;;;1.65;;
16660;SDS011;8444;52.012;5.048;2022-09-12T16:08:09;2.03;;;1.73;;
16660;SDS011;8444;52.012;5.048;2022-09-12T16:10:34;2.07;;;1.90;;
16660;SDS011;8444;52.012;5.048;2022-09-12T16:12:59;1.80;;;1.70;;
16660;SDS011;8444;52.012;5.048;2022-09-12T16:15:25;2.23;;;2.13;;
16660;SDS011;8444;52.012;5.048;2022-09-12T16:17:50;3.47;;;1.73;;
16660;SDS011;8444;52.012;5.048;2022-09-12T16:20:15;2.30;;;1.98;;
16660;SDS011;8444;52.012;5.048;2022-09-12T16:22:41;3.97;;;2.65;;
16660;SDS011;8444;52.012;5.048;2022-09-12T16:25:06;3.13;;;2.03;;
16660;SDS011;8444;52.012;5.048;2022-09-12T16:27:32;2.17;;;1.98;;
16660;SDS011;8444;52.012;5.048;2022-09-12T16:29:57;2.33;;;1.73;;
16660;SDS011;8444;52.012;5.048;2022-09-12T16:32:22;3.38;;;1.92;;
16660;SDS011;8444;52.012;5.048;2022-09-12T16:34:48;3.40;;;2.22;;
16660;SDS011;8444;52.012;5.048;2022-09-12T16:37:14;1.60;;;1.50;;
16660;SDS011;8444;52.012;5.048;2022-09-12T16:39:40;3.73;;;1.73;;
16660;SDS011;8444;52.012;5.048;2022-09-12T16:42:05;2.43;;;1.93;;
16660;SDS011;8444;52.012;5.048;2022-09-12T16:44:30;3.17;;;2.23;;
16660;SDS011;8444;52.012;5.048;2022-09-12T16:46:55;2.77;;;2.07;;
16660;SDS011;8444;52.012;5.048;2022-09-12T16:49:20;2.47;;;2.27;;
16660;SDS011;8444;52.012;5.048;2022-09-12T16:51:45;1.90;;;1.73;;
16660;SDS011;8444;52.012;5.048;2022-09-12T16:54:14;3.10;;;1.95;;
16660;SDS011;8444;52.012;5.048;2022-09-12T16:56:40;2.00;;;1.70;;
16660;SDS011;8444;52.012;5.048;2022-09-12T16:59:05;2.50;;;1.92;;
16660;SDS011;8444;52.012;5.048;2022-09-12T17:01:30;2.78;;;2.25;;
16660;SDS011;8444;52.012;5.048;2022-09-12T17:03:56;1.98;;;1.80;;
16660;SDS011;8444;52.012;5.048;2022-09-12T17:06:22;2.97;;;2.67;;